Time;durP1;ratioP1;P1;durP2;ratioP2;P2;SDS_P1;SDS_P2;PMS_P1;PMS_P2;Temp;Humidity;BMP_temperature;BMP_pressure;BME280_temperature;BME280_humidity;BME280_pressure;Samples;Min_cycle;Max_cycle;Signal;HPM_P1;HPM_P2
2023/07/25 00:01:12;;;;;;;76.60;35.43;;;18.00;99.90;;;;;;6241273;23;20415;-77
2023/07/25 00:03:39;;;;;;;78.87;35.17;;;18.00;99.90;;;;;;6241841;23;20776;-77
2023/07/25 00:06:05;;;;;;;74.50;34.33;;;18.00;99.90;;;;;;6241923;23;20403;-78
2023/07/25 00:08:33;;;;;;;72.00;32.33;;;18.00;99.90;;;;;;6241339;23;20404;-77
2023/07/25 00:10:59;;;;;;;74.53;33.10;;;18.00;99.90;;;;;;6241745;23;20420;-77
2023/07/25 00:13:28;;;;;;;77.80;35.60;;;18.00;99.90;;;;;;6241533;23;20419;-77
2023/07/25 00:15:55;;;;;;;77.33;36.30;;;18.00;99.90;;;;;;6241758;23;20795;-75
2023/07/25 00:18:21;;;;;;;75.80;34.87;;;18.00;99.90;;;;;;6241568;23;20407;-75
2023/07/25 00:20:48;;;;;;;72.87;31.70;;;18.00;99.90;;;;;;6241166;23;20446;-75
2023/07/25 00:23:15;;;;;;;70.87;32.90;;;18.00;99.90;;;;;;6241471;23;20447;-76
2023/07/25 00:25:41;;;;;;;69.53;31.10;;;17.90;99.90;;;;;;6241462;23;20403;-78
2023/07/25 00:28:08;;;;;;;71.60;32.30;;;17.90;99.90;;;;;;6241600;23;20408;-79
2023/07/25 00:30:36;;;;;;;71.07;32.80;;;17.90;99.90;;;;;;6241109;23;20899;-78
2023/07/25 00:33:03;;;;;;;71.80;32.97;;;17.90;99.90;;;;;;6241236;23;20439;-76
2023/07/25 00:35:30;;;;;;;74.50;32.90;;;18.00;99.90;;;;;;6242747;23;20896;-76
2023/07/25 00:37:56;;;;;;;74.20;32.40;;;17.90;99.90;;;;;;6243120;23;20414;-76
2023/07/25 00:40:23;;;;;;;74.47;33.60;;;18.00;99.90;;;;;;6243302;23;20408;-76
2023/07/25 00:42:54;;;;;;;72.97;33.57;;;18.00;99.90;;;;;;6243391;23;20444;-75
2023/07/25 00:45:21;;;;;;;70.90;32.90;;;18.00;99.90;;;;;;6243328;23;20387;-75
2023/07/25 00:47:49;;;;;;;75.47;33.67;;;18.00;99.90;;;;;;6243193;23;20415;-76
2023/07/25 00:50:16;;;;;;;73.43;33.70;;;18.10;99.90;;;;;;6243408;23;20415;-77
2023/07/25 00:52:43;;;;;;;70.87;33.37;;;18.10;99.90;;;;;;6243197;23;20414;-76
2023/07/25 00:55:10;;;;;;;72.90;34.60;;;18.00;99.90;;;;;;6243420;23;20475;-76
2023/07/25 00:57:36;;;;;;;72.43;33.30;;;18.00;99.90;;;;;;6242936;23;20712;-76
2023/07/25 01:00:04;;;;;;;71.57;33.23;;;18.00;99.90;;;;;;6243266;23;20404;-76
2023/07/25 01:02:31;;;;;;;74.63;33.73;;;18.00;99.90;;;;;;6242635;23;20478;-76
2023/07/25 01:04:59;;;;;;;71.97;33.97;;;17.90;99.90;;;;;;6243212;23;20400;-76
2023/07/25 01:07:26;;;;;;;75.37;34.60;;;17.80;99.90;;;;;;6243271;23;20458;-76
2023/07/25 01:09:53;;;;;;;74.70;34.90;;;17.80;99.90;;;;;;6242721;23;20408;-75
2023/07/25 01:12:20;;;;;;;73.90;35.70;;;17.80;99.90;;;;;;6243004;23;20462;-76
2023/07/25 01:14:46;;;;;;;78.40;36.57;;;17.70;99.90;;;;;;6242919;23;20415;-76
2023/07/25 01:17:14;;;;;;;74.77;34.47;;;17.60;99.90;;;;;;6243070;23;20404;-76
2023/07/25 01:19:46;;;;;;;73.07;35.63;;;17.50;99.90;;;;;;6243026;23;20408;-76
2023/07/25 01:22:14;;;;;;;71.27;32.97;;;17.50;99.90;;;;;;6242817;23;20484;-76
2023/07/25 01:24:44;;;;;;;71.97;34.67;;;17.50;99.90;;;;;;6242797;23;20415;-79
2023/07/25 01:27:11;;;;;;;71.77;34.37;;;17.50;99.90;;;;;;6242363;23;20411;-80
2023/07/25 01:29:38;;;;;;;73.50;32.67;;;17.40;99.90;;;;;;6243097;23;20419;-80
2023/07/25 01:32:05;;;;;;;75.60;35.33;;;17.40;99.90;;;;;;6242793;23;20884;-80
2023/07/25 01:34:32;;;;;;;73.00;34.50;;;17.50;99.90;;;;;;6242626;22;20432;-79
2023/07/25 01:36:59;;;;;;;72.17;33.60;;;17.50;99.90;;;;;;6242296;23;20892;-81
2023/07/25 01:39:26;;;;;;;73.77;34.63;;;17.40;99.90;;;;;;6242999;23;20415;-81
2023/07/25 01:41:54;;;;;;;72.73;34.60;;;17.40;99.90;;;;;;6242350;23;20907;-82
2023/07/25 01:44:20;;;;;;;72.97;33.80;;;17.40;99.90;;;;;;6243045;23;20440;-80
2023/07/25 01:46:47;;;;;;;74.37;35.50;;;17.40;99.90;;;;;;6242473;23;20408;-78
2023/07/25 01:49:14;;;;;;;76.50;34.93;;;17.40;99.90;;;;;;6242532;23;20860;-78
2023/07/25 01:51:40;;;;;;;73.17;35.30;;;17.40;99.90;;;;;;6242405;23;20411;-78
2023/07/25 01:54:07;;;;;;;74.70;34.27;;;17.30;99.90;;;;;;6242241;23;20408;-78
2023/07/25 01:56:34;;;;;;;74.80;36.00;;;17.20;99.90;;;;;;6242742;23;20408;-78
2023/07/25 01:59:02;;;;;;;74.10;35.57;;;17.30;99.90;;;;;;6242276;23;20408;-78
2023/07/25 02:01:29;;;;;;;74.20;35.83;;;17.20;99.90;;;;;;6242173;23;20912;-78
2023/07/25 02:03:55;;;;;;;77.20;34.93;;;17.20;99.90;;;;;;6242186;23;20444;-78
2023/07/25 02:06:22;;;;;;;75.27;35.30;;;17.20;99.90;;;;;;6242349;23;20411;-78
2023/07/25 02:08:49;;;;;;;74.20;36.30;;;17.10;99.90;;;;;;6242550;23;20404;-78
2023/07/25 02:11:16;;;;;;;73.00;34.60;;;17.20;99.90;;;;;;6242147;23;20467;-77
2023/07/25 02:13:42;;;;;;;74.30;35.73;;;17.20;99.90;;;;;;6242869;23;20408;-77
2023/07/25 02:16:10;;;;;;;72.97;36.30;;;17.10;99.90;;;;;;6242704;23;20515;-77
2023/07/25 02:18:37;;;;;;;72.00;34.80;;;17.00;99.90;;;;;;6242108;23;20411;-77
2023/07/25 02:21:04;;;;;;;73.67;35.80;;;17.10;99.90;;;;;;6241879;23;20403;-77
2023/07/25 02:23:31;;;;;;;72.13;34.57;;;17.00;99.90;;;;;;6242396;23;20462;-77
2023/07/25 02:25:57;;;;;;;74.73;35.73;;;17.00;99.90;;;;;;6241728;23;20400;-77
2023/07/25 02:28:24;;;;;;;74.00;35.20;;;17.00;99.90;;;;;;6242233;23;20408;-77
2023/07/25 02:30:51;;;;;;;79.23;34.13;;;17.00;99.90;;;;;;6242085;23;20415;-76
2023/07/25 02:33:19;;;;;;;73.60;35.57;;;17.00;99.90;;;;;;6241997;22;20530;-77
2023/07/25 02:35:45;;;;;;;74.17;35.07;;;17.00;99.90;;;;;;6242281;23;20399;-76
2023/07/25 02:38:12;;;;;;;73.10;35.80;;;17.00;99.90;;;;;;6242553;23;20722;-77
2023/07/25 02:40:39;;;;;;;74.27;36.70;;;17.00;99.90;;;;;;6242135;23;20412;-77
2023/07/25 02:43:07;;;;;;;73.00;35.53;;;17.10;99.90;;;;;;6241988;23;20595;-77
2023/07/25 02:45:34;;;;;;;75.33;36.87;;;17.00;99.90;;;;;;6241788;23;20408;-76
2023/07/25 02:48:01;;;;;;;73.70;36.07;;;17.10;99.90;;;;;;6242097;23;20415;-76
2023/07/25 02:50:29;;;;;;;73.30;37.00;;;17.10;99.90;;;;;;6242043;23;20410;-77
2023/07/25 02:52:56;;;;;;;70.77;33.40;;;17.00;99.90;;;;;;6242176;23;20419;-77
2023/07/25 02:55:22;;;;;;;73.50;36.67;;;17.00;99.90;;;;;;6241631;23;20899;-77
2023/07/25 02:57:49;;;;;;;75.00;36.90;;;17.10;99.90;;;;;;6241733;23;20430;-77
2023/07/25 03:00:16;;;;;;;72.83;36.40;;;17.10;99.90;;;;;;6241832;23;20408;-76
2023/07/25 03:02:42;;;;;;;72.87;36.70;;;17.10;99.90;;;;;;6241754;23;20403;-77
2023/07/25 03:05:09;;;;;;;73.20;37.07;;;17.20;99.90;;;;;;6242079;23;20934;-77
2023/07/25 03:07:37;;;;;;;76.13;37.13;;;17.20;99.90;;;;;;6241897;23;20434;-76
2023/07/25 03:10:05;;;;;;;78.53;36.10;;;17.20;99.90;;;;;;6241974;23;20503;-76
2023/07/25 03:12:31;;;;;;;74.50;35.90;;;17.30;99.90;;;;;;6241915;23;20430;-76
2023/07/25 03:14:58;;;;;;;74.30;35.97;;;17.40;99.90;;;;;;6242104;23;20408;-76
2023/07/25 03:17:25;;;;;;;73.70;35.50;;;17.50;99.90;;;;;;6242596;23;20404;-77
2023/07/25 03:19:52;;;;;;;72.80;36.33;;;17.60;99.90;;;;;;6242775;23;20423;-76
2023/07/25 03:22:19;;;;;;;76.80;37.20;;;17.60;99.90;;;;;;6242977;23;20416;-76
2023/07/25 03:24:48;;;;;;;72.80;36.30;;;17.70;99.90;;;;;;6242730;23;20739;-76
2023/07/25 03:27:15;;;;;;;74.10;37.57;;;17.80;99.90;;;;;;6242699;23;20404;-76
2023/07/25 03:29:42;;;;;;;79.17;38.90;;;17.80;99.90;;;;;;6242739;23;20415;-76
2023/07/25 03:32:09;;;;;;;73.77;37.80;;;17.90;99.90;;;;;;6242639;23;20408;-77
2023/07/25 03:34:36;;;;;;;76.20;36.13;;;17.90;99.90;;;;;;6242311;23;20447;-77
2023/07/25 03:37:03;;;;;;;73.97;37.50;;;17.90;99.90;;;;;;6242896;23;20411;-77
2023/07/25 03:39:30;;;;;;;77.73;38.70;;;17.90;99.90;;;;;;6242561;23;20415;-78
2023/07/25 03:41:58;;;;;;;73.77;36.30;;;17.90;99.90;;;;;;6242241;23;20612;-77
2023/07/25 03:44:25;;;;;;;73.43;37.27;;;18.00;99.90;;;;;;6242610;23;20771;-77
2023/07/25 03:46:51;;;;;;;75.73;37.60;;;18.10;99.90;;;;;;6242654;23;20400;-77
2023/07/25 03:49:18;;;;;;;73.00;37.00;;;18.10;99.90;;;;;;6242991;23;20431;-77
2023/07/25 03:51:45;;;;;;;75.40;38.17;;;18.10;99.90;;;;;;6242848;23;20412;-77
2023/07/25 03:54:12;;;;;;;74.50;37.10;;;18.10;99.90;;;;;;6242649;23;20400;-77
2023/07/25 03:56:38;;;;;;;74.80;37.13;;;18.20;99.90;;;;;;6243102;23;20412;-77
2023/07/25 03:59:06;;;;;;;78.77;36.40;;;18.20;99.90;;;;;;6242688;23;20410;-77
2023/07/25 04:01:33;;;;;;;80.23;36.83;;;18.20;99.90;;;;;;6242782;23;20408;-77
2023/07/25 04:04:00;;;;;;;75.63;36.13;;;18.20;99.90;;;;;;6242574;23;20478;-78
2023/07/25 04:06:26;;;;;;;76.40;37.17;;;18.20;99.90;;;;;;6242756;23;20407;-78
2023/07/25 04:08:53;;;;;;;72.70;35.50;;;18.20;99.90;;;;;;6242774;23;20745;-77
2023/07/25 04:11:20;;;;;;;73.43;36.07;;;18.20;99.90;;;;;;6244357;23;20412;-76
2023/07/25 04:13:49;;;;;;;73.30;36.90;;;18.30;99.90;;;;;;6244187;23;20900;-76
2023/07/25 04:16:17;;;;;;;78.60;36.90;;;18.30;99.90;;;;;;6244290;23;20903;-77
2023/07/25 04:18:44;;;;;;;77.37;37.40;;;18.40;99.90;;;;;;6244648;23;20426;-77
2023/07/25 04:21:11;;;;;;;75.17;36.70;;;18.30;99.90;;;;;;6244679;23;20439;-77
2023/07/25 04:23:38;;;;;;;73.87;35.93;;;18.30;99.90;;;;;;6244676;23;20649;-79
2023/07/25 04:26:04;;;;;;;72.70;36.23;;;18.30;99.90;;;;;;6243895;23;20931;-77
2023/07/25 04:28:31;;;;;;;75.20;36.63;;;18.20;99.90;;;;;;6243022;23;20406;-77
2023/07/25 04:30:58;;;;;;;79.70;35.97;;;18.20;99.90;;;;;;6243896;23;20739;-76
2023/07/25 04:33:26;;;;;;;76.30;34.87;;;18.20;99.90;;;;;;6243720;22;20435;-76
2023/07/25 04:35:52;;;;;;;72.60;34.83;;;18.30;99.90;;;;;;6243986;23;20789;-76
2023/07/25 04:38:19;;;;;;;73.67;35.77;;;18.30;99.90;;;;;;6243993;23;20404;-76
2023/07/25 04:40:46;;;;;;;73.77;34.83;;;18.20;99.90;;;;;;6243871;23;20404;-76
2023/07/25 04:43:13;;;;;;;76.90;38.10;;;18.10;99.90;;;;;;6244014;23;20408;-76
2023/07/25 04:45:39;;;;;;;73.30;36.60;;;18.20;99.90;;;;;;6243258;23;20443;-76
2023/07/25 04:48:07;;;;;;;73.63;34.63;;;18.30;99.90;;;;;;6244217;23;20421;-76
2023/07/25 04:50:35;;;;;;;71.30;34.17;;;18.20;99.90;;;;;;6244043;23;20528;-76
2023/07/25 04:53:01;;;;;;;73.40;32.80;;;18.20;99.90;;;;;;6243881;23;20431;-76
2023/07/25 04:55:28;;;;;;;73.40;34.50;;;18.30;99.90;;;;;;6243593;23;20407;-80
2023/07/25 04:57:55;;;;;;;77.93;35.13;;;18.40;99.90;;;;;;6243846;23;20404;-79
2023/07/25 05:00:22;;;;;;;75.20;36.20;;;18.40;99.90;;;;;;6243846;23;20403;-76
2023/07/25 05:02:49;;;;;;;70.70;33.67;;;18.50;99.90;;;;;;6243455;23;20412;-76
2023/07/25 05:05:15;;;;;;;71.27;34.07;;;18.50;99.90;;;;;;6243122;23;20439;-78
2023/07/25 05:07:43;;;;;;;73.23;34.97;;;18.50;99.90;;;;;;6243728;23;20407;-77
2023/07/25 05:10:10;;;;;;;74.57;35.03;;;18.60;99.90;;;;;;6243826;23;20414;-78
2023/07/25 05:12:37;;;;;;;74.10;34.70;;;18.60;99.90;;;;;;6243580;23;20519;-79
2023/07/25 05:15:04;;;;;;;74.80;35.53;;;18.70;99.90;;;;;;6242777;23;20924;-79
2023/07/25 05:17:31;;;;;;;73.90;34.90;;;18.80;99.90;;;;;;6242930;23;20412;-79
2023/07/25 05:19:58;;;;;;;71.10;32.90;;;18.80;99.90;;;;;;6243395;23;20415;-79
2023/07/25 05:22:25;;;;;;;72.60;33.80;;;18.80;99.90;;;;;;6242706;23;20415;-79
2023/07/25 05:24:53;;;;;;;73.80;34.60;;;18.80;99.90;;;;;;6243382;23;20755;-78
2023/07/25 05:27:19;;;;;;;73.90;33.90;;;18.70;99.90;;;;;;6243233;23;20411;-79
2023/07/25 05:29:46;;;;;;;75.60;35.63;;;18.70;99.90;;;;;;6243483;23;20452;-79
2023/07/25 05:32:13;;;;;;;72.70;34.40;;;18.70;99.90;;;;;;6243350;23;20892;-78
2023/07/25 05:34:39;;;;;;;77.87;36.03;;;18.70;99.90;;;;;;6242655;23;20450;-80
2023/07/25 05:37:07;;;;;;;73.17;34.70;;;18.70;99.90;;;;;;6243319;23;20762;-81
2023/07/25 05:39:33;;;;;;;76.07;36.27;;;18.70;99.90;;;;;;6243715;23;20504;-81
2023/07/25 05:42:02;;;;;;;76.37;35.20;;;18.70;99.90;;;;;;6243043;23;20411;-81
2023/07/25 05:44:28;;;;;;;78.50;37.13;;;18.70;99.90;;;;;;6242741;23;20954;-81
2023/07/25 05:46:55;;;;;;;73.50;34.20;;;18.70;99.90;;;;;;6241531;23;20415;-82
2023/07/25 05:49:22;;;;;;;74.20;35.90;;;18.80;99.90;;;;;;6242738;23;20860;-78
2023/07/25 05:51:48;;;;;;;74.37;35.00;;;18.80;99.90;;;;;;6243454;23;20781;-78
2023/07/25 05:54:16;;;;;;;74.40;34.07;;;18.90;99.90;;;;;;6243412;23;20426;-77
2023/07/25 05:56:42;;;;;;;72.20;34.60;;;18.90;99.90;;;;;;6243106;23;20416;-77
2023/07/25 05:59:11;;;;;;;72.67;34.50;;;18.80;99.90;;;;;;6242786;23;20911;-77
2023/07/25 06:01:39;;;;;;;75.63;33.30;;;19.00;99.90;;;;;;6242872;23;20487;-75
2023/07/25 06:04:06;;;;;;;80.93;42.87;;;19.00;99.90;;;;;;6242952;23;20444;-73
2023/07/25 06:06:33;;;;;;;81.90;49.23;;;19.00;99.90;;;;;;6242915;23;20439;-71
2023/07/25 06:09:00;;;;;;;88.23;58.70;;;18.80;99.90;;;;;;6242536;23;20407;-71
2023/07/25 06:11:28;;;;;;;89.27;61.30;;;18.70;99.90;;;;;;6242640;23;20416;-71
2023/07/25 06:13:55;;;;;;;91.33;64.63;;;18.30;99.90;;;;;;6243171;23;20808;-71
2023/07/25 06:16:23;;;;;;;92.90;68.63;;;18.00;99.90;;;;;;6243535;23;20408;-72
2023/07/25 06:18:49;;;;;;;94.80;68.20;;;18.00;99.90;;;;;;6242847;23;20411;-72
2023/07/25 06:21:16;;;;;;;94.70;67.60;;;18.00;99.90;;;;;;6243201;23;20415;-72
2023/07/25 06:23:43;;;;;;;92.10;68.40;;;17.90;99.90;;;;;;6243369;23;20734;-70
2023/07/25 06:26:10;;;;;;;94.20;71.00;;;18.10;99.90;;;;;;6243334;23;20448;-70
2023/07/25 06:28:36;;;;;;;92.40;70.53;;;18.40;99.90;;;;;;6242355;23;20438;-70
2023/07/25 06:31:03;;;;;;;96.53;71.30;;;18.40;99.90;;;;;;6242420;23;20410;-71
2023/07/25 06:33:31;;;;;;;92.20;68.23;;;18.30;99.90;;;;;;6241200;22;20863;-70
2023/07/25 06:35:58;;;;;;;94.80;71.63;;;18.20;99.90;;;;;;6242522;23;20408;-72
2023/07/25 06:38:25;;;;;;;92.27;69.50;;;18.10;99.90;;;;;;6242512;23;20503;-72
2023/07/25 06:40:51;;;;;;;91.50;68.60;;;18.00;99.90;;;;;;6241726;23;21027;-72
2023/07/25 06:43:18;;;;;;;92.07;66.87;;;17.90;99.90;;;;;;6242227;23;20412;-72
2023/07/25 06:45:45;;;;;;;94.57;67.80;;;17.80;99.90;;;;;;6241864;23;20444;-72
2023/07/25 06:48:12;;;;;;;90.97;65.67;;;17.80;99.90;;;;;;6242445;23;20407;-72
2023/07/25 06:50:40;;;;;;;91.47;62.60;;;17.80;99.90;;;;;;6242284;23;20420;-73
2023/07/25 06:53:07;;;;;;;89.20;62.77;;;17.90;99.90;;;;;;6242075;23;20404;-73
2023/07/25 06:55:34;;;;;;;89.50;65.17;;;18.00;99.90;;;;;;6242742;23;20404;-73
2023/07/25 06:58:01;;;;;;;88.80;64.90;;;18.20;99.90;;;;;;6242345;23;20408;-73
2023/07/25 07:00:27;;;;;;;94.70;67.27;;;18.30;99.90;;;;;;6242037;23;20411;-70
2023/07/25 07:02:54;;;;;;;98.97;70.93;;;18.30;99.90;;;;;;6241788;23;20573;-72
2023/07/25 07:05:21;;;;;;;100.87;76.23;;;18.30;99.90;;;;;;6241778;23;20993;-72
2023/07/25 07:07:49;;;;;;;98.43;74.87;;;18.20;99.90;;;;;;6242292;23;20469;-73
2023/07/25 07:10:16;;;;;;;101.97;75.83;;;18.20;99.90;;;;;;6241989;23;20734;-73
2023/07/25 07:12:47;;;;;;;101.33;77.53;;;18.20;99.90;;;;;;6242030;23;20447;-73
2023/07/25 07:15:15;;;;;;;101.07;74.37;;;18.20;99.90;;;;;;6242545;23;20666;-73
2023/07/25 07:17:41;;;;;;;103.17;78.90;;;18.20;99.90;;;;;;6242277;23;20408;-72
2023/07/25 07:20:09;;;;;;;104.03;79.63;;;18.30;99.90;;;;;;6241390;23;20404;-72
2023/07/25 07:22:36;;;;;;;103.97;79.00;;;18.30;99.90;;;;;;6242110;23;20417;-72
2023/07/25 07:25:04;;;;;;;104.57;77.47;;;18.30;99.90;;;;;;6241947;23;20439;-70
2023/07/25 07:27:31;;;;;;;101.23;79.97;;;18.40;99.90;;;;;;6241892;23;20407;-72
2023/07/25 07:29:58;;;;;;;103.40;78.03;;;18.60;99.90;;;;;;6241484;23;20408;-72
2023/07/25 07:32:24;;;;;;;99.90;76.07;;;18.60;99.90;;;;;;6242350;23;20466;-72
2023/07/25 07:34:51;;;;;;;96.37;74.80;;;18.80;99.90;;;;;;6241722;22;20733;-72
2023/07/25 07:37:18;;;;;;;100.43;77.03;;;18.80;99.90;;;;;;6242017;23;20404;-71
2023/07/25 07:39:44;;;;;;;97.57;75.07;;;18.80;99.90;;;;;;6241759;23;20418;-71
2023/07/25 07:42:12;;;;;;;94.30;69.70;;;18.70;99.90;;;;;;6242020;23;20412;-71
2023/07/25 07:44:39;;;;;;;102.87;74.10;;;18.70;99.90;;;;;;6240786;23;20958;-71
2023/07/25 07:47:06;;;;;;;97.10;70.57;;;18.50;99.90;;;;;;6242054;23;20408;-70
2023/07/25 07:49:33;;;;;;;96.30;69.40;;;18.30;99.90;;;;;;6242039;23;20549;-70
2023/07/25 07:52:00;;;;;;;93.93;67.60;;;18.20;99.90;;;;;;6241842;23;20408;-69
2023/07/25 07:54:27;;;;;;;95.77;69.67;;;18.10;99.90;;;;;;6241859;23;20408;-69
2023/07/25 07:56:54;;;;;;;91.60;65.07;;;18.50;99.90;;;;;;6241835;23;20442;-69
2023/07/25 07:59:22;;;;;;;88.00;64.30;;;18.70;99.90;;;;;;6241665;23;21115;-70
2023/07/25 08:01:49;;;;;;;82.73;53.20;;;19.00;99.90;;;;;;6242236;23;20415;-70
2023/07/25 08:04:16;;;;;;;78.73;50.43;;;19.20;99.90;;;;;;6242085;23;20483;-72
2023/07/25 08:06:43;;;;;;;79.10;47.17;;;19.60;99.90;;;;;;6241686;23;20450;-71
2023/07/25 08:09:10;;;;;;;77.67;44.53;;;20.00;99.90;;;;;;6241848;23;20407;-72
2023/07/25 08:11:37;;;;;;;74.00;39.80;;;20.50;99.90;;;;;;6241511;23;20466;-71
2023/07/25 08:14:03;;;;;;;74.10;38.47;;;20.60;99.90;;;;;;6241933;23;20412;-72
2023/07/25 08:16:31;;;;;;;77.57;36.30;;;20.70;99.90;;;;;;6241574;23;20396;-72
2023/07/25 08:18:58;;;;;;;74.27;33.00;;;21.70;99.90;;;;;;6240997;23;20408;-74
2023/07/25 08:21:25;;;;;;;72.00;32.10;;;22.40;99.90;;;;;;6241826;23;20408;-74
2023/07/25 08:23:51;;;;;;;72.00;32.00;;;23.00;99.90;;;;;;6239491;23;20408;-74
2023/07/25 08:26:18;;;;;;;70.70;31.80;;;23.30;99.90;;;;;;6241143;23;20443;-74
2023/07/25 08:28:45;;;;;;;70.63;30.50;;;23.30;99.90;;;;;;6242415;23;20404;-74
2023/07/25 08:31:12;;;;;;;70.27;30.47;;;23.70;99.90;;;;;;6242676;23;20411;-74
2023/07/25 08:33:42;;;;;;;69.47;31.00;;;23.90;99.90;;;;;;6242167;23;20485;-73
2023/07/25 08:36:09;;;;;;;69.27;32.10;;;23.50;99.90;;;;;;6241728;23;20408;-74
2023/07/25 08:38:36;;;;;;;71.10;32.67;;;22.90;99.90;;;;;;6241108;23;20471;-73
2023/07/25 08:41:09;;;;;;;70.70;34.27;;;22.30;99.90;;;;;;6241582;23;20427;-73
2023/07/25 08:43:38;;;;;;;72.53;35.43;;;21.70;99.90;;;;;;6241818;23;20392;-73
2023/07/25 08:46:08;;;;;;;73.23;35.13;;;21.60;99.90;;;;;;6241599;23;20466;-73
2023/07/25 08:48:37;;;;;;;72.33;34.50;;;21.60;99.90;;;;;;6242056;23;20435;-74
2023/07/25 08:51:07;;;;;;;71.60;33.17;;;21.80;99.90;;;;;;6241153;23;20415;-74
2023/07/25 08:53:36;;;;;;;70.97;32.13;;;22.40;99.90;;;;;;6241220;23;20424;-74
2023/07/25 08:56:04;;;;;;;70.60;30.67;;;22.80;99.90;;;;;;6241868;23;20399;-74
2023/07/25 08:58:31;;;;;;;70.53;30.57;;;23.30;99.90;;;;;;6243227;23;20747;-74
2023/07/25 09:00:58;;;;;;;70.37;30.80;;;23.50;99.90;;;;;;6243552;23;20407;-74
2023/07/25 09:03:26;;;;;;;68.37;30.20;;;25.00;99.90;;;;;;6243376;23;20400;-75
2023/07/25 09:05:53;;;;;;;67.87;29.20;;;26.40;99.90;;;;;;6243382;23;20451;-75
2023/07/25 09:08:21;;;;;;;66.47;28.47;;;27.20;99.90;;;;;;6243755;23;20407;-75
2023/07/25 09:10:49;;;;;;;66.27;28.37;;;27.20;99.90;;;;;;6243773;23;20900;-75
2023/07/25 09:13:15;;;;;;;67.77;32.43;;;26.40;99.90;;;;;;6243929;23;20432;-73
2023/07/25 09:15:42;;;;;;;69.77;35.97;;;25.50;99.90;;;;;;6244019;23;20403;-73
2023/07/25 09:18:09;;;;;;;74.27;45.60;;;24.30;99.90;;;;;;6244227;23;20476;-73
2023/07/25 09:20:37;;;;;;;76.30;49.13;;;23.40;99.90;;;;;;6243422;23;20910;-71
2023/07/25 09:23:04;;;;;;;77.40;50.90;;;22.80;99.90;;;;;;6243151;23;20412;-72
2023/07/25 09:25:33;;;;;;;78.50;50.70;;;22.40;99.90;;;;;;6242875;23;20447;-73
2023/07/25 09:27:59;;;;;;;78.67;48.93;;;22.10;99.90;;;;;;6243745;23;20498;-72
2023/07/25 09:30:28;;;;;;;74.07;44.77;;;22.00;99.90;;;;;;6243155;23;20447;-74
2023/07/25 09:32:55;;;;;;;74.57;47.37;;;21.80;99.90;;;;;;6243498;23;20423;-74
2023/07/25 09:35:23;;;;;;;71.60;41.90;;;21.70;99.90;;;;;;6243237;23;20396;-75
2023/07/25 09:37:53;;;;;;;67.00;29.60;;;21.80;99.90;;;;;;6243577;23;20407;-75
2023/07/25 09:40:20;;;;;;;67.30;28.50;;;22.20;99.90;;;;;;6243138;23;20482;-74
2023/07/25 09:42:50;;;;;;;67.90;28.80;;;22.90;99.90;;;;;;6243170;23;20415;-75
2023/07/25 09:45:18;;;;;;;67.63;28.60;;;23.40;99.90;;;;;;6243445;23;20424;-76
2023/07/25 09:47:44;;;;;;;67.03;27.47;;;23.60;99.90;;;;;;6243575;23;20408;-76
2023/07/25 09:50:11;;;;;;;66.77;27.10;;;23.40;99.90;;;;;;6243257;23;20408;-76
2023/07/25 09:52:40;;;;;;;69.70;28.10;;;23.60;99.90;;;;;;6243358;23;20911;-75
2023/07/25 09:55:07;;;;;;;67.07;27.73;;;24.50;99.90;;;;;;6243163;23;20404;-76
2023/07/25 09:57:35;;;;;;;65.70;26.93;;;25.80;99.90;;;;;;6243295;23;20797;-77
2023/07/25 10:00:06;;;;;;;65.47;27.37;;;26.10;99.90;;;;;;6242340;23;20411;-76
2023/07/25 10:02:33;;;;;;;67.30;27.60;;;25.90;99.90;;;;;;6242006;23;20404;-76
2023/07/25 10:05:01;;;;;;;64.00;26.80;;;27.20;99.90;;;;;;6242652;23;20899;-76
2023/07/25 10:07:31;;;;;;;65.37;28.00;;;28.30;99.90;;;;;;6241563;23;20439;-76
2023/07/25 10:09:59;;;;;;;66.10;27.57;;;29.50;95.50;;;;;;6241915;23;20717;-76
2023/07/25 10:12:26;;;;;;;66.97;28.00;;;30.10;94.30;;;;;;6241457;23;20434;-76
2023/07/25 10:14:53;;;;;;;68.57;28.17;;;29.70;92.90;;;;;;6241360;23;20682;-76
2023/07/25 10:17:21;;;;;;;65.97;27.90;;;29.10;94.10;;;;;;6241416;23;20986;-77
2023/07/25 10:19:50;;;;;;;65.97;28.90;;;28.80;94.00;;;;;;6241765;23;20419;-76
2023/07/25 10:22:17;;;;;;;69.40;27.67;;;28.60;94.90;;;;;;6241976;23;20762;-76
2023/07/25 10:24:44;;;;;;;64.60;27.70;;;29.10;93.80;;;;;;6242609;23;20414;-76
2023/07/25 10:27:13;;;;;;;65.07;28.50;;;29.30;91.60;;;;;;6242297;23;20446;-76
2023/07/25 10:29:42;;;;;;;66.07;28.37;;;28.90;92.80;;;;;;6242370;23;20408;-76
2023/07/25 10:32:12;;;;;;;65.20;27.73;;;28.80;92.80;;;;;;6241978;23;20411;-76
2023/07/25 10:34:48;;;;;;;65.30;27.80;;;28.30;92.40;;;;;;6241510;22;20440;-76
2023/07/25 10:37:27;;;;;;;65.27;27.70;;;27.80;92.70;;;;;;6240505;23;20411;-76
2023/07/25 10:40:05;;;;;;;65.23;27.77;;;28.30;93.30;;;;;;6241359;23;20388;-76
2023/07/25 10:42:50;;;;;;;64.60;27.90;;;28.60;92.80;;;;;;6241387;23;20612;-76
2023/07/25 10:45:21;;;;;;;65.07;28.00;;;28.10;92.30;;;;;;6241029;23;20923;-76
2023/07/25 10:47:49;;;;;;;65.83;28.13;;;28.00;93.10;;;;;;6241375;23;20415;-76
2023/07/25 10:50:19;;;;;;;65.27;29.00;;;28.60;92.30;;;;;;6240606;23;20938;-76
2023/07/25 10:52:46;;;;;;;63.70;27.47;;;28.00;94.00;;;;;;6241079;23;20415;-74
2023/07/25 10:55:14;;;;;;;65.03;27.80;;;27.40;98.30;;;;;;6241711;23;20408;-74
2023/07/25 10:57:40;;;;;;;65.80;27.40;;;26.30;98.90;;;;;;6240979;23;20407;-73
2023/07/25 11:00:09;;;;;;;66.80;30.20;;;25.40;99.90;;;;;;6240574;23;20411;-74
2023/07/25 11:02:38;;;;;;;67.03;30.40;;;24.60;99.90;;;;;;6241148;23;20408;-73
2023/07/25 11:05:23;;;;;;;67.40;31.37;;;23.70;99.90;;;;;;6241697;23;20455;-72
2023/07/25 11:07:52;;;;;;;72.70;30.90;;;23.00;99.90;;;;;;6241837;23;20404;-74
2023/07/25 11:10:23;;;;;;;68.70;32.60;;;22.70;99.90;;;;;;6241551;23;20482;-75
2023/07/25 11:12:52;;;;;;;68.73;32.67;;;22.50;99.90;;;;;;6241017;23;20428;-72
2023/07/25 11:15:18;;;;;;;71.47;36.10;;;22.10;99.90;;;;;;6242088;23;20415;-72
2023/07/25 11:17:45;;;;;;;71.57;35.60;;;22.00;99.90;;;;;;6242231;23;20412;-73
2023/07/25 11:20:13;;;;;;;70.23;34.90;;;22.10;99.90;;;;;;6242006;23;20451;-75
2023/07/25 11:22:42;;;;;;;68.60;34.07;;;22.40;99.90;;;;;;6242261;23;20415;-75
2023/07/25 11:25:09;;;;;;;65.47;26.70;;;23.40;99.90;;;;;;6242283;23;20415;-76
2023/07/25 11:27:40;;;;;;;66.00;27.53;;;24.70;99.90;;;;;;6242125;23;20440;-76
2023/07/25 11:30:15;;;;;;;66.00;26.97;;;26.20;99.90;;;;;;6241900;23;20395;-76
2023/07/25 11:32:47;;;;;;;66.70;26.67;;;26.80;99.70;;;;;;6241880;23;20492;-75
2023/07/25 11:35:13;;;;;;;63.80;26.30;;;26.40;99.80;;;;;;6242346;23;20411;-76
2023/07/25 11:37:42;;;;;;;64.50;26.33;;;26.70;97.80;;;;;;6241891;23;20563;-76
2023/07/25 11:40:14;;;;;;;63.50;25.60;;;26.70;98.40;;;;;;6242162;23;20412;-76
2023/07/25 11:42:42;;;;;;;63.40;25.80;;;27.20;98.50;;;;;;6241695;23;20416;-77
2023/07/25 11:45:11;;;;;;;63.60;26.50;;;28.80;96.30;;;;;;6241823;23;20408;-77
2023/07/25 11:47:39;;;;;;;64.67;26.93;;;29.60;92.60;;;;;;6241756;23;20547;-77
2023/07/25 11:50:07;;;;;;;64.57;28.57;;;29.90;91.00;;;;;;6242227;23;20415;-79
2023/07/25 11:52:35;;;;;;;64.03;26.40;;;29.90;90.00;;;;;;6241919;23;20407;-78
2023/07/25 11:55:04;;;;;;;63.47;26.57;;;29.10;90.80;;;;;;6241945;23;20416;-77
2023/07/25 11:57:30;;;;;;;63.40;25.83;;;29.30;89.30;;;;;;6241894;23;20404;-77
2023/07/25 11:59:59;;;;;;;62.27;24.43;;;28.70;89.00;;;;;;6241883;23;20426;-77
2023/07/25 12:02:27;;;;;;;62.80;25.50;;;28.30;90.40;;;;;;6241795;23;20415;-77
2023/07/25 12:04:54;;;;;;;63.53;25.53;;;27.80;90.20;;;;;;6241415;23;20443;-76
2023/07/25 12:07:20;;;;;;;63.47;25.80;;;27.60;91.10;;;;;;6241582;23;20467;-77
2023/07/25 12:09:52;;;;;;;64.00;25.80;;;27.10;90.70;;;;;;6241296;23;20752;-76
2023/07/25 12:12:20;;;;;;;63.40;25.23;;;27.60;90.50;;;;;;6242151;23;20428;-76
2023/07/25 12:14:58;;;;;;;63.40;25.00;;;28.60;87.50;;;;;;6241841;23;20779;-77
2023/07/25 12:17:41;;;;;;;65.60;25.20;;;27.60;85.80;;;;;;6241722;23;20407;-80
2023/07/25 12:20:14;;;;;;;64.50;23.63;;;26.20;89.60;;;;;;6242304;23;20388;-80
2023/07/25 12:22:40;;;;;;;67.10;25.50;;;24.90;92.30;;;;;;6241576;23;20392;-79
2023/07/25 12:25:07;;;;;;;64.37;24.80;;;24.00;94.30;;;;;;6241719;23;20408;-78
2023/07/25 12:27:44;;;;;;;65.87;25.27;;;23.60;96.60;;;;;;6240885;23;20439;-77